Coldwater, Ohio
Current Conditions -  °F | °C
As of 8:14 AM on Thursday 23 Oct 2014 (Local Time) from KAXV Reporting Station
Light Snow Light Snow  
Wind Chill: 32°   Ceiling: 200
Heat Index: 32°   Visibility: 0mi
Dew Point: 32°   Wind: 0mph
Humidity: 100%   Direction: NA
Pressure: 30.26"   Gusts: NA
Location:  40.48°N, 84.63°W
Report Text: KAXV 231214Z AUTO 00000KT M1/4SM -SN OVC002 00/00 A3026 RMK AO2
Loading
Personal Weather Stations






























Interactive Weather Map
Tropical Storm Tracking
New forecast layout! Learn more

10-Day Weather Forecast

Advertisements
Track Severe Weather on mobile